Time;durP1;ratioP1;P1;durP2;ratioP2;P2;SDS_P1;SDS_P2;PMS_P1;PMS_P2;Temp;Humidity;BMP_temperature;BMP_pressure;BME280_temperature;BME280_humidity;BME280_pressure;Samples;Min_cycle;Max_cycle;Signal;HPM_P1;HPM_P2
2024/04/26 00:00:54;;;;;;;18.00;15.00;;;;;;;15.87;67.73;99514.75;105286;1253;60500;-59
2024/04/26 00:03:21;;;;;;;20.30;14.30;;;;;;;15.90;67.70;99523.19;105316;1257;62458;-60
2024/04/26 00:05:49;;;;;;;17.40;14.40;;;;;;;15.95;67.94;99529.54;107655;1253;60418;-61
2024/04/26 00:08:19;;;;;;;22.00;17.00;;;;;;;16.00;67.70;99528.74;105244;1257;60373;-59
2024/04/26 00:10:46;;;;;;;21.40;16.40;;;;;;;15.98;67.62;99528.46;106070;1254;63676;-59
2024/04/26 00:13:14;;;;;;;23.10;17.80;;;;;;;15.97;67.87;99533.35;105232;1251;61414;-60
2024/04/26 00:15:41;;;;;;;20.30;15.80;;;;;;;15.99;67.95;99536.71;105329;1254;64340;-58
2024/04/26 00:18:09;;;;;;;20.20;16.20;;;;;;;16.05;67.72;99542.33;106868;1257;60673;-60
2024/04/26 00:20:36;;;;;;;20.60;14.60;;;;;;;16.12;67.52;99547.30;105215;1257;60526;-58
2024/04/26 00:23:04;;;;;;;20.70;15.10;;;;;;;16.17;67.22;99555.63;105516;1254;63693;-60
2024/04/26 00:25:31;;;;;;;19.90;16.30;;;;;;;16.16;66.97;99561.58;105134;1258;60501;-59
2024/04/26 00:27:59;;;;;;;24.10;18.80;;;;;;;16.16;67.06;99568.31;105252;1255;62568;-60
2024/04/26 00:30:27;;;;;;;22.40;17.00;;;;;;;16.14;66.90;99571.70;105230;1254;60523;-61
2024/04/26 00:32:54;;;;;;;24.30;16.70;;;;;;;16.13;67.03;99569.30;105217;1257;60710;-60
2024/04/26 00:35:22;;;;;;;21.80;15.70;;;;;;;16.16;66.84;99572.32;105210;1254;63742;-60
2024/04/26 00:37:49;;;;;;;19.30;15.00;;;;;;;16.13;66.50;99572.70;105215;1257;60371;-60
2024/04/26 00:40:19;;;;;;;22.90;15.60;;;;;;;16.03;66.34;99580.66;105194;1253;62620;-60
2024/04/26 00:42:46;;;;;;;21.30;15.90;;;;;;;15.93;66.51;99584.45;106035;1253;60386;-60
2024/04/26 00:45:15;;;;;;;23.60;17.30;;;;;;;15.79;66.74;99584.80;105209;1254;61479;-59
2024/04/26 00:47:43;;;;;;;23.20;15.90;;;;;;;15.65;67.07;99580.55;106926;1256;64959;-59
2024/04/26 00:50:10;;;;;;;23.50;17.00;;;;;;;15.55;67.42;99585.19;105099;1259;60434;-59
2024/04/26 00:52:38;;;;;;;21.20;15.50;;;;;;;15.47;67.70;99585.52;105290;1254;62582;-59
2024/04/26 00:55:06;;;;;;;21.10;15.50;;;;;;;15.42;67.94;99584.48;105028;1254;60460;-58
2024/04/26 00:57:33;;;;;;;18.70;15.00;;;;;;;15.37;68.13;99590.18;105127;1258;60351;-58
2024/04/26 01:00:01;;;;;;;19.50;14.40;;;;;;;15.36;68.45;99591.05;105140;1254;64948;-62
2024/04/26 01:02:28;;;;;;;19.20;14.90;;;;;;;15.33;68.60;99590.10;105230;1257;60537;-60
2024/04/26 01:04:56;;;;;;;21.00;15.60;;;;;;;15.28;68.80;99592.69;105610;1254;62496;-59
2024/04/26 01:07:24;;;;;;;17.80;13.40;;;;;;;15.22;69.07;99592.24;105345;1254;60690;-61
2024/04/26 01:09:51;;;;;;;16.80;12.70;;;;;;;15.16;69.16;99592.00;105201;1257;60525;-59
2024/04/26 01:12:21;;;;;;;17.20;11.40;;;;;;;15.15;69.21;99593.00;105937;1254;63652;-60
2024/04/26 01:14:48;;;;;;;16.70;11.70;;;;;;;15.17;69.05;99588.86;105218;1257;61492;-60
2024/04/26 01:17:16;;;;;;;18.80;11.10;;;;;;;15.19;69.15;99582.55;105278;1254;62451;-60
2024/04/26 01:19:44;;;;;;;16.30;12.20;;;;;;;15.27;69.25;99580.73;105220;1254;60370;-61
2024/04/26 01:22:13;;;;;;;17.30;11.70;;;;;;;15.37;69.27;99581.70;105270;1252;60441;-60
2024/04/26 01:24:41;;;;;;;14.40;10.80;;;;;;;15.44;69.05;99581.60;105426;1257;65127;-58
2024/04/26 01:27:08;;;;;;;14.80;10.90;;;;;;;15.50;68.64;99576.40;105335;1254;62217;-59
2024/04/26 01:29:36;;;;;;;14.50;10.50;;;;;;;15.56;68.28;99573.58;105194;1257;63724;-59
2024/04/26 01:32:04;;;;;;;16.30;12.10;;;;;;;15.62;68.05;99575.94;105397;1252;60433;-60
2024/04/26 01:34:31;;;;;;;13.90;10.30;;;;;;;15.64;67.68;99581.92;105592;1254;60374;-60
2024/04/26 01:36:59;;;;;;;23.20;11.10;;;;;;;15.64;67.41;99585.40;105727;1253;65587;-60
2024/04/26 01:39:26;;;;;;;13.40;9.80;;;;;;;15.62;67.18;99587.90;105178;1257;61777;-60
2024/04/26 01:41:54;;;;;;;11.40;8.60;;;;;;;15.60;67.17;99576.77;105306;1254;62467;-60
2024/04/26 01:44:21;;;;;;;16.30;9.50;;;;;;;15.61;66.96;99577.89;107403;1253;61349;-66
2024/04/26 01:46:49;;;;;;;12.10;9.00;;;;;;;15.58;66.83;99573.14;106210;1254;61359;-62
2024/04/26 01:49:16;;;;;;;12.40;8.90;;;;;;;15.54;66.90;99572.05;106034;1254;65727;-63
2024/04/26 01:51:44;;;;;;;11.70;8.30;;;;;;;15.53;67.02;99567.21;105495;1256;61270;-61
2024/04/26 01:54:11;;;;;;;10.70;7.80;;;;;;;15.52;66.81;99562.88;105339;1252;63773;-60
2024/04/26 01:56:39;;;;;;;11.30;7.20;;;;;;;15.48;66.84;99561.94;105184;1257;61381;-60
2024/04/26 01:59:08;;;;;;;10.80;7.20;;;;;;;15.42;67.02;99559.17;105194;1254;61224;-61
2024/04/26 02:01:37;;;;;;;10.10;7.80;;;;;;;15.41;67.14;99557.72;106250;1256;66659;-63
2024/04/26 02:04:04;;;;;;;9.10;6.50;;;;;;;15.41;67.23;99550.63;106102;1258;61234;-63
2024/04/26 02:06:32;;;;;;;9.80;7.40;;;;;;;15.41;67.14;99553.55;106327;1254;64219;-64
2024/04/26 02:08:59;;;;;;;9.20;6.90;;;;;;;15.40;67.20;99560.20;106200;1253;61148;-66
2024/04/26 02:11:30;;;;;;;8.70;6.20;;;;;;;15.36;67.21;99565.52;105849;1254;61224;-62
2024/04/26 02:13:57;;;;;;;9.20;6.60;;;;;;;15.35;67.21;99568.83;105294;1252;64453;-60
2024/04/26 02:16:25;;;;;;;8.50;6.30;;;;;;;15.37;67.27;99572.16;105305;1252;61294;-60
2024/04/26 02:18:53;;;;;;;12.60;6.80;;;;;;;15.41;67.24;99573.34;105266;1252;62551;-62
2024/04/26 02:21:21;;;;;;;10.70;7.70;;;;;;;15.41;67.22;99578.08;108391;1254;61305;-60
2024/04/26 02:23:48;;;;;;;12.80;8.20;;;;;;;15.38;67.41;99579.23;105233;1254;61582;-60
2024/04/26 02:26:20;;;;;;;10.30;7.70;;;;;;;15.45;67.27;99578.85;105183;1257;64425;-60
2024/04/26 02:28:47;;;;;;;10.80;7.60;;;;;;;15.51;67.11;99578.62;106813;1257;61244;-59
2024/04/26 02:31:16;;;;;;;9.80;7.60;;;;;;;15.55;67.05;99580.78;105182;1254;62519;-59
2024/04/26 02:33:43;;;;;;;12.00;9.30;;;;;;;15.57;66.91;99580.54;105323;1254;61344;-60
2024/04/26 02:36:11;;;;;;;13.20;9.00;;;;;;;15.56;66.95;99575.38;105161;1256;61205;-62
2024/04/26 02:38:40;;;;;;;11.30;8.40;;;;;;;15.56;66.75;99580.84;106040;1254;64627;-61
2024/04/26 02:41:09;;;;;;;10.90;7.80;;;;;;;15.56;66.68;99596.73;105320;1257;61262;-59
2024/04/26 02:43:40;;;;;;;10.00;7.20;;;;;;;15.54;66.62;99607.27;105384;1254;62476;-59
2024/04/26 02:46:13;;;;;;;13.50;8.40;;;;;;;15.50;66.69;99605.73;105206;1254;61307;-60
2024/04/26 02:48:41;;;;;;;10.00;7.70;;;;;;;15.47;67.04;99601.81;105319;1254;61298;-60
2024/04/26 02:51:12;;;;;;;10.70;7.80;;;;;;;15.51;67.16;99602.29;105122;1252;64487;-60
2024/04/26 02:53:40;;;;;;;13.00;8.20;;;;;;;15.51;67.13;99599.98;105204;1257;61435;-60
2024/04/26 02:56:08;;;;;;;11.10;7.60;;;;;;;15.53;67.07;99595.85;107082;1251;63774;-59
2024/04/26 02:58:39;;;;;;;11.30;7.50;;;;;;;15.57;66.76;99598.56;105421;1254;61343;-60
2024/04/26 03:01:07;;;;;;;9.00;6.70;;;;;;;15.57;66.57;99598.56;105247;1254;61346;-60
2024/04/26 03:03:36;;;;;;;9.00;6.70;;;;;;;15.57;66.67;99608.85;105310;1257;65831;-66
2024/04/26 03:06:07;;;;;;;11.20;7.40;;;;;;;15.53;66.73;99618.95;106353;1251;61301;-62
2024/04/26 03:08:35;;;;;;;9.50;7.00;;;;;;;15.45;66.55;99627.83;105341;1254;63775;-60
2024/04/26 03:11:09;;;;;;;10.00;6.40;;;;;;;15.35;66.76;99632.27;105415;1252;61701;-60
2024/04/26 03:13:40;;;;;;;10.90;6.50;;;;;;;15.38;66.98;99631.04;106136;1259;61273;-59
2024/04/26 03:16:07;;;;;;;8.40;5.80;;;;;;;15.49;66.86;99622.77;106172;1257;64455;-59
2024/04/26 03:18:35;;;;;;;11.20;5.90;;;;;;;15.51;66.73;99620.92;105139;1254;61385;-60
2024/04/26 03:21:03;;;;;;;10.10;6.30;;;;;;;15.51;66.77;99622.56;106259;1256;64748;-60
2024/04/26 03:23:30;;;;;;;8.90;5.80;;;;;;;15.52;66.85;99617.98;105148;1257;61247;-59
2024/04/26 03:25:58;;;;;;;7.80;4.70;;;;;;;15.58;66.67;99614.17;105192;1252;61237;-59
2024/04/26 03:28:25;;;;;;;7.40;4.80;;;;;;;15.67;66.52;99616.02;105247;1254;65842;-60
2024/04/26 03:30:53;;;;;;;8.00;5.30;;;;;;;15.74;66.41;99615.95;109132;1254;60092;-61
2024/04/26 03:33:22;;;;;;;7.10;4.70;;;;;;;15.81;66.36;99619.41;105890;1257;62540;-60
2024/04/26 03:36:08;;;;;;;7.60;5.20;;;;;;;15.85;66.04;99626.54;105447;1257;61324;-60
2024/04/26 03:38:37;;;;;;;7.90;5.50;;;;;;;15.85;66.03;99624.79;105303;1254;61368;-60
2024/04/26 03:41:23;;;;;;;8.70;5.90;;;;;;;15.86;65.85;99625.88;105337;1253;67422;-60
2024/04/26 03:43:51;;;;;;;9.30;6.00;;;;;;;15.88;65.68;99625.17;105278;1258;62473;-61
2024/04/26 03:46:18;;;;;;;7.60;4.70;;;;;;;15.90;65.60;99627.40;105222;1254;64863;-60
2024/04/26 03:48:49;;;;;;;7.70;4.70;;;;;;;15.91;65.35;99632.54;105216;1254;61292;-59
2024/04/26 03:51:17;;;;;;;7.00;4.80;;;;;;;15.86;65.57;99633.27;105222;1257;61166;-60
2024/04/26 03:53:44;;;;;;;8.10;5.20;;;;;;;15.84;65.54;99633.19;105832;1254;68014;-59
2024/04/26 03:56:12;;;;;;;6.20;4.20;;;;;;;15.86;65.46;99632.31;105192;1254;63486;-61
2024/04/26 03:58:41;;;;;;;6.40;4.00;;;;;;;15.88;65.38;99632.20;105290;1254;64975;-62
2024/04/26 04:01:14;;;;;;;5.80;3.50;;;;;;;15.91;65.17;99634.52;106022;1253;61918;-60
2024/04/26 04:03:42;;;;;;;7.10;3.60;;;;;;;15.94;65.06;99642.18;105165;1257;61221;-60
2024/04/26 04:06:10;;;;;;;5.10;3.00;;;;;;;15.93;64.93;99646.82;105560;1252;66679;-61
2024/04/26 04:08:42;;;;;;;6.50;3.50;;;;;;;15.87;64.95;99655.48;105865;1254;63376;-60
2024/04/26 04:11:10;;;;;;;5.80;3.20;;;;;;;15.86;65.02;99665.04;105694;1254;65833;-59
2024/04/26 04:13:37;;;;;;;7.30;2.70;;;;;;;15.89;65.03;99663.43;105574;1257;61145;-62
2024/04/26 04:16:05;;;;;;;7.00;3.00;;;;;;;15.92;64.90;99666.92;105579;1253;61215;-61
2024/04/26 04:18:33;;;;;;;4.50;2.40;;;;;;;15.91;64.69;99673.44;105520;1254;67722;-60
2024/04/26 04:21:01;;;;;;;6.40;2.70;;;;;;;15.89;64.80;99677.00;106237;1254;63324;-60
2024/04/26 04:23:28;;;;;;;5.10;2.40;;;;;;;15.93;64.70;99681.39;106196;1253;66123;-60
2024/04/26 04:25:58;;;;;;;5.10;2.30;;;;;;;15.97;64.57;99682.62;105983;1253;61358;-60
2024/04/26 04:28:27;;;;;;;5.00;2.10;;;;;;;16.02;64.27;99682.02;105234;1252;61429;-60
2024/04/26 04:31:01;;;;;;;4.30;2.10;;;;;;;16.06;64.10;99677.71;108968;1253;66691;-69
2024/04/26 04:33:29;;;;;;;4.90;2.40;;;;;;;16.03;63.82;99672.93;105932;1252;62365;-64
2024/04/26 04:35:56;;;;;;;5.20;2.10;;;;;;;15.98;63.90;99677.02;106170;1259;65013;-62
2024/04/26 04:38:24;;;;;;;4.50;2.00;;;;;;;15.92;63.45;99677.33;106233;1254;61380;-69
2024/04/26 04:40:51;;;;;;;4.80;2.10;;;;;;;15.88;63.16;99679.25;106463;1251;61268;-59
2024/04/26 04:43:19;;;;;;;4.10;2.10;;;;;;;15.85;63.18;99681.23;104968;1259;68034;-60
2024/04/26 04:45:47;;;;;;;5.00;1.70;;;;;;;15.81;63.15;99681.45;105948;1254;63354;-61
2024/04/26 04:48:18;;;;;;;4.10;1.90;;;;;;;15.82;63.16;99688.57;106323;1257;66123;-62
2024/04/26 04:50:45;;;;;;;4.60;1.70;;;;;;;15.84;62.98;99697.26;106536;1257;61307;-64
2024/04/26 04:53:13;;;;;;;4.40;1.90;;;;;;;15.83;62.74;99696.98;106480;1254;59569;-64
2024/04/26 04:55:41;;;;;;;4.10;2.10;;;;;;;15.81;62.51;99696.46;106983;1254;67921;-61
2024/04/26 04:58:13;;;;;;;4.60;1.80;;;;;;;15.82;62.43;99703.65;105717;1252;62284;-61
2024/04/26 05:00:47;;;;;;;4.50;1.50;;;;;;;15.84;62.25;99702.59;105110;1257;65718;-59
2024/04/26 05:03:15;;;;;;;4.20;2.00;;;;;;;15.85;62.02;99697.48;104912;1254;61269;-63
2024/04/26 05:05:43;;;;;;;5.10;2.20;;;;;;;15.81;62.00;99701.40;104886;1254;62827;-60
2024/04/26 05:08:11;;;;;;;4.30;2.20;;;;;;;15.76;62.29;99708.83;105435;1255;77369;-56
2024/04/26 05:10:39;;;;;;;5.30;2.10;;;;;;;15.73;62.53;99711.41;105040;1254;63353;-54
2024/04/26 05:13:06;;;;;;;4.40;2.10;;;;;;;15.76;62.53;99714.80;104896;1257;66399;-58
2024/04/26 05:15:34;;;;;;;4.80;2.30;;;;;;;15.81;62.41;99720.84;104991;1254;61441;-58
2024/04/26 05:18:02;;;;;;;8.00;2.70;;;;;;;15.85;62.31;99726.15;105029;1254;61273;-59
2024/04/26 05:20:30;;;;;;;5.00;2.80;;;;;;;15.84;62.23;99734.92;106918;1254;64490;-61
2024/04/26 05:22:57;;;;;;;5.50;2.60;;;;;;;15.85;62.18;99743.11;105264;1254;61718;-60
2024/04/26 05:25:25;;;;;;;6.00;2.60;;;;;;;15.84;62.23;99748.22;105455;1254;63837;-60
2024/04/26 05:27:52;;;;;;;6.00;2.90;;;;;;;15.77;62.20;99749.48;105281;1256;61282;-60
2024/04/26 05:30:20;;;;;;;5.00;2.60;;;;;;;15.76;62.10;99753.93;105179;1252;61340;-62
2024/04/26 05:32:48;;;;;;;6.00;3.00;;;;;;;15.77;61.98;99760.22;105674;1254;66735;-62
2024/04/26 05:35:16;;;;;;;5.50;2.80;;;;;;;15.78;61.83;99767.14;105305;1258;61462;-60
2024/04/26 05:37:45;;;;;;;5.90;3.20;;;;;;;15.77;61.77;99768.73;105186;1259;63965;-63
2024/04/26 05:40:12;;;;;;;5.00;2.70;;;;;;;15.74;61.60;99768.86;106663;1254;61409;-59
2024/04/26 05:42:40;;;;;;;5.40;2.80;;;;;;;15.70;61.51;99766.14;105556;1254;61368;-70
2024/04/26 05:45:08;;;;;;;6.70;2.80;;;;;;;15.69;61.29;99772.22;105779;1257;64627;-63
2024/04/26 05:47:37;;;;;;;6.00;3.10;;;;;;;15.69;61.10;99780.17;106204;1254;61271;-67
2024/04/26 05:50:05;;;;;;;5.40;2.90;;;;;;;15.66;60.85;99782.66;106309;1257;66188;-67
2024/04/26 05:52:36;;;;;;;5.20;3.20;;;;;;;15.58;60.50;99782.41;106333;1253;61279;-66
2024/04/26 05:55:03;;;;;;;7.10;3.20;;;;;;;15.53;60.57;99782.00;106137;1254;61141;-67
2024/04/26 05:57:31;;;;;;;5.70;2.70;;;;;;;15.50;60.43;99786.32;106241;1254;65808;-65
2024/04/26 05:59:59;;;;;;;5.40;3.00;;;;;;;15.52;60.41;99788.98;105965;1254;62204;-68
2024/04/26 06:02:27;;;;;;;6.30;3.10;;;;;;;15.52;60.21;99794.97;106451;1253;62520;-68
2024/04/26 06:05:00;;;;;;;5.80;3.30;;;;;;;15.50;60.11;99801.36;106249;1256;61398;-70
2024/04/26 06:07:28;;;;;;;6.10;3.40;;;;;;;15.45;60.23;99799.25;106119;1253;61502;-68
2024/04/26 06:09:56;;;;;;;6.80;3.10;;;;;;;15.41;60.10;99800.42;106158;1254;65965;-70
2024/04/26 06:12:23;;;;;;;5.50;3.20;;;;;;;15.37;59.96;99800.63;106178;1258;61313;-70
2024/04/26 06:14:51;;;;;;;5.40;3.50;;;;;;;15.35;59.95;99797.48;106251;1254;63931;-69
2024/04/26 06:17:19;;;;;;;6.10;3.90;;;;;;;15.31;59.95;99797.59;106450;1257;61250;-67
2024/04/26 06:19:46;;;;;;;5.50;3.50;;;;;;;15.26;59.97;99799.41;106417;1257;61289;-70
2024/04/26 06:22:14;;;;;;;7.40;3.70;;;;;;;15.21;60.14;99793.73;106262;1257;66815;-64
2024/04/26 06:24:42;;;;;;;6.90;3.90;;;;;;;15.24;60.08;99790.77;105384;1256;61276;-70
2024/04/26 06:27:09;;;;;;;5.90;3.80;;;;;;;15.26;60.20;99794.64;106304;1257;63844;-67
2024/04/26 06:29:37;;;;;;;5.80;3.60;;;;;;;15.25;60.25;99796.48;106161;1254;61358;-72
2024/04/26 06:32:05;;;;;;;6.90;4.10;;;;;;;15.25;60.12;99803.77;106216;1254;61339;-71
2024/04/26 06:34:32;;;;;;;5.70;3.70;;;;;;;15.23;60.13;99813.47;106245;1254;66075;-65
2024/04/26 06:37:07;;;;;;;6.70;3.80;;;;;;;15.24;59.99;99813.92;106144;1254;61583;-68
2024/04/26 06:39:35;;;;;;;5.80;4.00;;;;;;;15.24;59.98;99811.48;106228;1254;63822;-68
2024/04/26 06:42:02;;;;;;;8.00;4.30;;;;;;;15.21;59.91;99813.05;106276;1256;61300;-71
2024/04/26 06:44:30;;;;;;;5.60;3.40;;;;;;;15.17;60.01;99811.89;105756;1254;61223;-70
2024/04/26 06:46:57;;;;;;;5.60;3.30;;;;;;;15.16;60.04;99815.36;106068;1254;66325;-64
2024/04/26 06:49:26;;;;;;;5.90;3.40;;;;;;;15.14;60.02;99814.84;106060;1254;61961;-70
2024/04/26 06:51:56;;;;;;;5.80;3.80;;;;;;;15.12;60.10;99806.23;106318;1254;65737;-73
2024/04/26 06:54:24;;;;;;;7.30;3.70;;;;;;;15.10;60.28;99807.19;106134;1254;61356;-71
2024/04/26 06:56:51;;;;;;;6.90;3.30;;;;;;;15.06;60.46;99823.65;106164;1254;61289;-68
2024/04/26 06:59:19;;;;;;;5.50;3.00;;;;;;;15.03;60.07;99836.45;106073;1254;65785;-61
2024/04/26 07:01:51;;;;;;;8.00;3.20;;;;;;;15.03;60.01;99834.54;105877;1254;61221;-69
2024/04/26 07:04:19;;;;;;;7.10;3.20;;;;;;;15.02;60.13;99834.87;106260;1254;65901;-69
2024/04/26 07:06:47;;;;;;;7.70;3.20;;;;;;;15.03;60.14;99839.55;106433;1257;61244;-71
2024/04/26 07:09:15;;;;;;;4.50;2.30;;;;;;;15.06;60.07;99840.73;106074;1254;61232;-62
2024/04/26 07:11:46;;;;;;;6.50;2.90;;;;;;;15.14;59.86;99842.59;105641;1252;64623;-67
2024/04/26 07:14:14;;;;;;;7.00;2.80;;;;;;;15.17;59.64;99841.66;106290;1254;61614;-69
2024/04/26 07:16:41;;;;;;;6.40;2.90;;;;;;;15.19;59.48;99843.25;106577;1255;62787;-68
2024/04/26 07:19:09;;;;;;;5.00;2.80;;;;;;;15.16;59.24;99854.75;106424;1252;61304;-68
2024/04/26 07:21:37;;;;;;;4.10;1.90;;;;;;;15.15;59.19;99863.90;105636;1254;61187;-66
2024/04/26 07:24:04;;;;;;;4.50;2.10;;;;;;;15.20;59.36;99865.12;106616;1254;64723;-68
2024/04/26 07:26:32;;;;;;;4.50;2.20;;;;;;;15.27;59.35;99868.77;106197;1255;61593;-70
2024/04/26 07:29:00;;;;;;;5.30;2.50;;;;;;;15.35;59.26;99869.29;106224;1255;64199;-67
2024/04/26 07:31:48;;;;;;;4.60;2.20;;;;;;;15.44;59.08;99871.10;106371;1256;61420;-60
2024/04/26 07:34:18;;;;;;;4.80;2.20;;;;;;;15.53;59.00;99872.14;105525;1254;61301;-65
2024/04/26 07:36:46;;;;;;;4.40;2.20;;;;;;;15.63;58.64;99871.45;106110;1251;75060;-65
2024/04/26 07:39:14;;;;;;;5.10;2.10;;;;;;;15.67;58.23;99870.58;106241;1254;61335;-68
2024/04/26 07:41:41;;;;;;;4.80;1.90;;;;;;;15.74;57.71;99870.74;106330;1252;63834;-66
2024/04/26 07:44:09;;;;;;;5.10;1.90;;;;;;;15.82;57.67;99872.83;106257;1253;61364;-65
2024/04/26 07:46:36;;;;;;;4.80;1.90;;;;;;;15.92;57.59;99879.05;106398;1251;61512;-62
2024/04/26 07:49:04;;;;;;;6.30;2.00;;;;;;;16.00;57.29;99882.01;105720;1259;64674;-59
2024/04/26 07:51:36;;;;;;;5.10;2.00;;;;;;;16.05;56.82;99885.90;105676;1254;72634;-64
2024/04/26 07:54:04;;;;;;;5.20;1.70;;;;;;;16.05;56.48;99887.70;106283;1255;64927;-61
2024/04/26 07:56:33;;;;;;;3.80;1.70;;;;;;;16.03;56.38;99890.86;106204;1253;61439;-61
2024/04/26 07:59:02;;;;;;;5.30;1.80;;;;;;;16.05;56.24;99902.20;108899;1251;59061;-61
2024/04/26 08:01:30;;;;;;;4.10;1.60;;;;;;;16.05;56.19;99914.93;106449;1256;65759;-59
2024/04/26 08:03:57;;;;;;;3.50;1.40;;;;;;;16.00;56.21;99917.04;105344;1257;61413;-58
2024/04/26 08:06:26;;;;;;;4.50;1.60;;;;;;;15.90;56.14;99914.08;106288;1256;63826;-60
2024/04/26 08:08:53;;;;;;;3.90;1.60;;;;;;;15.83;56.19;99917.91;105547;1256;61282;-61
2024/04/26 08:11:21;;;;;;;4.00;1.70;;;;;;;15.84;56.43;99923.08;106274;1251;61241;-63
2024/04/26 08:13:48;;;;;;;4.50;1.40;;;;;;;15.94;56.52;99923.02;105334;1258;65795;-63
2024/04/26 08:16:16;;;;;;;4.40;2.20;;;;;;;16.07;56.21;99922.46;106309;1256;61332;-63
2024/04/26 08:18:43;;;;;;;3.90;1.60;;;;;;;16.16;55.91;99927.70;105963;1254;64022;-62
2024/04/26 08:21:11;;;;;;;4.00;1.70;;;;;;;16.21;55.90;99924.81;106944;1256;61359;-60
2024/04/26 08:23:39;;;;;;;4.50;1.70;;;;;;;16.26;55.70;99923.08;106327;1256;61219;-63
2024/04/26 08:26:06;;;;;;;3.80;1.70;;;;;;;16.30;55.46;99916.25;106313;1253;64544;-64
2024/04/26 08:28:34;;;;;;;4.00;1.50;;;;;;;16.32;55.13;99916.68;106259;1256;61532;-62
2024/04/26 08:31:01;;;;;;;3.80;2.00;;;;;;;16.35;54.81;99923.27;106499;1256;63786;-57
2024/04/26 08:33:29;;;;;;;6.70;2.10;;;;;;;16.40;54.72;99935.66;105561;1257;61279;-64
2024/04/26 08:35:57;;;;;;;4.50;1.70;;;;;;;16.44;54.72;99942.98;106356;1251;61384;-63
2024/04/26 08:38:25;;;;;;;5.50;1.70;;;;;;;16.51;54.62;99943.55;107943;1255;67071;-65
2024/04/26 08:40:53;;;;;;;4.40;2.20;;;;;;;16.59;54.55;99949.00;106397;1256;61259;-61
2024/04/26 08:43:22;;;;;;;4.00;2.10;;;;;;;16.62;54.41;99954.59;106402;1256;62566;-59
2024/04/26 08:45:53;;;;;;;3.70;1.80;;;;;;;16.70;54.70;99960.14;105829;1254;61255;-57
2024/04/26 08:48:21;;;;;;;3.40;1.40;;;;;;;16.87;54.46;99964.07;105938;1254;61413;-57
2024/04/26 08:50:48;;;;;;;3.60;1.60;;;;;;;17.04;53.74;99968.46;105310;1254;65777;-56
2024/04/26 08:53:16;;;;;;;3.40;1.40;;;;;;;17.10;53.49;99964.61;105823;1254;61569;-58
2024/04/26 08:55:44;;;;;;;4.00;1.60;;;;;;;17.11;53.15;99964.71;105298;1257;63818;-55
2024/04/26 08:58:12;;;;;;;6.00;1.60;;;;;;;17.05;53.13;99967.80;105370;1257;61246;-56
2024/04/26 09:00:39;;;;;;;3.50;1.50;;;;;;;17.01;53.34;99970.66;105689;1256;61314;-61
2024/04/26 09:03:07;;;;;;;3.90;1.70;;;;;;;16.96;52.97;99975.39;105426;1256;65787;-60
2024/04/26 09:05:37;;;;;;;3.80;1.60;;;;;;;16.87;53.28;99976.27;105575;1256;61209;-62
2024/04/26 09:08:05;;;;;;;4.60;1.70;;;;;;;16.81;53.83;99982.22;105399;1254;66095;-57
2024/04/26 09:10:33;;;;;;;4.00;1.30;;;;;;;16.83;53.94;99987.66;105366;1257;61371;-60
2024/04/26 09:13:01;;;;;;;4.90;1.50;;;;;;;16.91;53.87;99992.83;105394;1253;61355;-60
2024/04/26 09:15:32;;;;;;;3.80;1.50;;;;;;;17.00;53.48;99988.41;105733;1256;65853;-61
2024/04/26 09:18:00;;;;;;;5.50;1.60;;;;;;;17.06;53.38;99992.54;106177;1254;61448;-62
2024/04/26 09:20:29;;;;;;;3.40;1.60;;;;;;;17.12;53.62;99997.20;105877;1255;64246;-62
2024/04/26 09:22:57;;;;;;;5.40;1.80;;;;;;;17.17;53.34;99994.67;106094;1257;61355;-61
2024/04/26 09:25:34;;;;;;;3.90;1.70;;;;;;;17.18;53.34;99995.27;105280;1254;61403;-60
2024/04/26 09:28:02;;;;;;;3.80;1.80;;;;;;;17.18;53.43;99999.70;106337;1258;65790;-63
2024/04/26 09:30:30;;;;;;;5.30;2.00;;;;;;;17.17;53.10;99995.90;105495;1253;71114;-61
2024/04/26 09:32:58;;;;;;;4.20;2.10;;;;;;;17.17;53.30;99988.83;105294;1256;63809;-61
2024/04/26 09:35:28;;;;;;;4.20;1.60;;;;;;;17.23;53.38;99979.66;106194;1257;61352;-61
2024/04/26 09:37:56;;;;;;;4.40;1.80;;;;;;;17.33;53.06;99978.95;106325;1255;61203;-61
2024/04/26 09:40:24;;;;;;;4.20;2.10;;;;;;;17.45;52.95;99982.23;106167;1258;64533;-61
2024/04/26 09:42:53;;;;;;;4.40;2.20;;;;;;;17.55;52.46;99992.05;105204;1254;62001;-61
2024/04/26 09:45:21;;;;;;;11.60;2.30;;;;;;;17.64;52.40;99991.10;106815;1252;63414;-61
2024/04/26 09:48:07;;;;;;;5.70;2.30;;;;;;;17.69;51.76;99992.05;105928;1254;414128;-64
2024/04/26 09:53:14;;;;;;;7.70;2.00;;;;;;;17.26;52.98;100002.85;102838;1290;601111;-61
2024/04/26 09:55:42;;;;;;;5.20;2.10;;;;;;;17.52;52.42;99992.16;104335;1266;60216;-61
2024/04/26 09:58:10;;;;;;;5.40;2.10;;;;;;;17.51;52.35;99979.07;104670;1266;60198;-60
2024/04/26 10:00:38;;;;;;;6.00;2.10;;;;;;;17.50;52.77;99974.21;104317;1266;64804;-59
2024/04/26 10:03:06;;;;;;;7.30;2.10;;;;;;;17.58;52.41;99965.50;104416;1266;61534;-61
2024/04/26 10:05:34;;;;;;;4.30;2.00;;;;;;;17.71;52.31;99964.86;106244;1268;63328;-60
2024/04/26 10:08:03;;;;;;;4.20;2.10;;;;;;;17.84;52.11;99958.17;104354;1269;227334;-60
2024/04/26 10:10:31;;;;;;;4.20;2.00;;;;;;;17.93;51.76;99953.65;105086;1267;59628;-60
2024/04/26 10:13:19;;;;;;;5.40;2.30;;;;;;;17.98;52.03;99954.59;105450;1264;64241;-60
2024/04/26 10:15:54;;;;;;;5.00;2.40;;;;;;;18.06;51.82;99964.25;104941;1264;62174;-61
2024/04/26 10:18:35;;;;;;;4.70;2.10;;;;;;;18.11;51.50;99974.94;105059;1265;63870;-60
2024/04/26 10:21:04;;;;;;;8.50;2.80;;;;;;;18.14;50.92;99975.23;105801;1259;60473;-59
2024/04/26 10:23:35;;;;;;;8.00;2.60;;;;;;;18.12;50.70;99974.13;105498;1258;60338;-56
2024/04/26 10:26:07;;;;;;;5.00;2.60;;;;;;;18.04;50.81;99966.35;105083;1254;63729;-60
2024/04/26 10:28:35;;;;;;;5.90;2.60;;;;;;;18.00;50.99;99963.03;107062;1253;62032;-63
2024/04/26 10:31:03;;;;;;;5.20;2.40;;;;;;;18.02;51.09;99967.60;106193;1253;63847;-60
2024/04/26 10:33:34;;;;;;;5.70;2.60;;;;;;;18.09;51.48;99973.73;106161;1253;60992;-60
2024/04/26 10:36:05;;;;;;;5.90;2.90;;;;;;;18.18;51.52;99975.98;106158;1253;60565;-61
2024/04/26 10:38:42;;;;;;;5.00;2.50;;;;;;;18.25;51.27;99984.52;106105;1259;64946;-61
2024/04/26 10:41:09;;;;;;;5.50;2.30;;;;;;;18.27;50.83;99989.18;106126;1258;62705;-60
2024/04/26 10:43:37;;;;;;;8.30;2.70;;;;;;;18.28;50.33;99991.77;106074;1253;63891;-60
2024/04/26 10:46:05;;;;;;;4.50;2.40;;;;;;;18.29;50.38;99991.26;105838;1259;60726;-58
2024/04/26 10:48:34;;;;;;;5.20;2.50;;;;;;;18.33;50.68;99989.75;105313;1253;60316;-60
2024/04/26 10:51:12;;;;;;;4.80;2.40;;;;;;;18.38;50.47;99989.83;105495;1259;65033;-58
2024/04/26 10:53:41;;;;;;;5.20;2.30;;;;;;;18.42;50.43;99987.06;105327;1253;61616;-56
2024/04/26 10:56:15;;;;;;;4.80;2.60;;;;;;;18.42;50.13;99983.56;105405;1254;66557;-59
2024/04/26 10:58:43;;;;;;;4.30;2.10;;;;;;;18.39;49.94;99983.73;106691;1254;60563;-55
2024/04/26 11:01:20;;;;;;;4.60;2.50;;;;;;;18.39;50.02;99984.21;105276;1254;60605;-55
2024/04/26 11:03:55;;;;;;;5.20;1.90;;;;;;;18.41;50.07;99989.73;105821;1253;65000;-60
2024/04/26 11:06:34;;;;;;;4.40;2.10;;;;;;;18.39;49.58;99994.88;106531;1253;63460;-55
2024/04/26 11:09:17;;;;;;;5.40;2.10;;;;;;;18.40;49.48;99999.87;105391;1253;62509;-55
2024/04/26 11:11:51;;;;;;;6.40;2.30;;;;;;;18.43;49.40;100000.96;106863;1257;60931;-54
2024/04/26 11:14:29;;;;;;;4.40;2.00;;;;;;;18.45;49.42;99999.92;105063;1254;60474;-56
2024/04/26 11:16:56;;;;;;;6.30;2.10;;;;;;;18.41;49.27;100001.38;105605;1253;63722;-58
2024/04/26 11:19:28;;;;;;;5.50;2.10;;;;;;;18.36;49.47;100005.20;106457;1255;60841;-54
2024/04/26 11:21:56;;;;;;;5.50;2.00;;;;;;;18.33;49.88;99999.70;105614;1254;63369;-55
2024/04/26 11:24:24;;;;;;;7.30;1.90;;;;;;;18.35;50.34;99999.79;104908;1259;60536;-54
2024/04/26 11:26:52;;;;;;;5.80;1.90;;;;;;;18.41;50.18;100001.67;109109;1253;58628;-55
2024/04/26 11:29:20;;;;;;;6.40;1.70;;;;;;;18.43;50.11;99997.08;109066;1253;65188;-54
2024/04/26 11:31:47;;;;;;;5.00;2.00;;;;;;;18.47;49.82;99993.46;109091;1254;60326;-54